Terminal Aerodrome Forecast
Issued by NWS

Home | Current Version | Previous Version | Graphics & Text | Print | Product List | Glossary On
Versions: 1 2 3 4 5 6 7 8 9 10 11 12 13 14 15 16 17 18 19 20 21
000
FTUS43 KGRB 241124
TAFCWA
TAF
KCWA 241124Z 2412/2512 VRB03KT P6SM BKN090
     FM241500 16009G15KT P6SM BKN060
     FM242100 13009KT P6SM -SHRA SCT025 OVC050
      TEMPO 2422/2424 5SM -SHRA OVC020
     FM250000 11010KT 3SM RA BR SCT008 OVC015
     FM250300 11010KT 3SM RA BR BKN008 OVC015 WS013/15035KT=

USA.gov is the U.S. government's official web portal to all federal, state and local government web resources and services.